header
  MetSoc Home            Publications            Contacts  

List of Strewnfield Members

Searching for strewnfield members of Motopi Pan
This meteorite fell in 2018
24 strewnfield members found.
Google Earth Plot in Google Earth

Google Earth no labels Plot in Google Earth with no labels

(Click on a column heading to sort)

Meteorite [mass name] Synonyn Mass Latitude Longitude Class Finder Found Description Main mass loc Type spec mass Type spec loc Approved Ref
Motopi Pan [MP-01] 17.9 g 21°14'55"S 23°14'19"E Lesedi Seitshiro, BIUST 2018-06-23 UTC time= 07:00; alt. (m)=1002   2021-04-23 M. Gabadirwe
Motopi Pan [MP-02] 4.28 g 21°14'10"S 23°15'19"E Mohutsiwa Gabadirwe, BGI 2018-09-10 UTC time= 10:50; alt. (m)=1004   2021-04-23 M. Gabadirwe
Motopi Pan [MP-03] 10.1 g 21°14'13"S 23°16'17"E Oliver Moses, ORI 2018-10-10 UTC time= 13:00; alt. (m)=1001   2021-04-23 M. Gabadirwe
Motopi Pan [MP-04] 13.2 g 21°14'20"S 23°16'57"E Thebe Kemosedile, ORI 2018-10-10 UTC time= 14:26; alt. (m)=989   2021-04-23 M. Gabadirwe
Motopi Pan [MP-05] 2.59 g 21°14'23"S 23°17'41"E Mohutsiwa Gabadirwe, BGI 2018-11-10 UTC time= 07:28; alt. (m)=991   2021-04-23 M. Gabadirwe
Motopi Pan [MP-06] 8.6 g 21°14'20"S 23°17'51"E Peter Jenniskens, ORI 2018-11-10 UTC time= 07:54; alt. (m)=994   2021-04-23 M. Gabadirwe
Motopi Pan [MP-07] 0.51 g 21°14'20"S 23°17'52"E Sarah M. Tsenene, DWNP 2018-11-10 UTC time= 08:00; alt. (m)=994   2021-04-23 M. Gabadirwe
Motopi Pan [MP-08] 3.95 g 21°14'19"S 23°17'53"E Kagiso Kgetse, DWNP 2018-11-10 UTC time= 08:24; alt. (m)=996   2021-04-23 M. Gabadirwe
Motopi Pan [MP-09] 4.96 g 21°14'13"S 23°18'23"E Kagiso Kgetse, DWNP 2018-11-10 UTC time= 09:10; alt. (m)=996   2021-04-23 M. Gabadirwe
Motopi Pan [MP-10] 0.89 g 21°14'11"S 23°18'31"E Kagiso Kgetse, DWNP 2018-11-10 UTC time= 09:45; alt. (m)=997   2021-04-23 M. Gabadirwe
Motopi Pan [MP-11] 4.51 g 21°14'23"S 23°18'3"E Sara M. Tsenene, DWNP 2018-11-10 UTC time= 12:45; alt. (m)=991   2021-04-23 M. Gabadirwe
Motopi Pan [MP-12] 3.6 g 21°14'23"S 23°17'50"E Mohutsiwa Gabadirwe, BGI 2018-11-10 UTC time= 14:10; alt. (m)=990   2021-04-23 M. Gabadirwe
Motopi Pan [MP-13] 3.76 g 21°14'13"S 23°16'22"E Kagiso Kgetse, DWNP 2018-12-10 UTC time= 07:14; alt. (m)=998   2021-04-23 M. Gabadirwe
Motopi Pan [MP-14] 4.35 g 21°14'11"S 23°17'49"E Kabelo Dikole, BGI 2018-12-10 UTC time= 09:06; alt. (m)=996   2021-04-23 M. Gabadirwe
Motopi Pan [MP-15] 2.71 g 21°14'11"S 23°17'49"E Oliver Moses, ORI 2018-12-10 UTC time= 09:10; alt. (m)=995   2021-04-23 M. Gabadirwe
Motopi Pan [MP-16] 1.35 g 21°14'27"S 23°17'52"E Peter Jenniskens, ORI 2018-12-10 UTC time= 09:45; alt. (m)=994   2021-04-23 M. Gabadirwe
Motopi Pan [MP-17] 4.93 g 21°14'20"S 23°17'25"E Kagiso Kgetse, DWNP 2018-12-10 UTC time= 12:50; alt. (m)=1005   2021-04-23 M. Gabadirwe
Motopi Pan [MP-18] 0.9 g 21°14'16"S 23°17'9"E Mohutsiwa Gabadirwe, BGI 2018-12-10 UTC time= 13:20; alt. (m)=997   2021-04-23 M. Gabadirwe
Motopi Pan [MP-19] 6.2 g 21°14'17"S 23°17'2"E Tim Cooper, ORI 2018-12-10 UTC time= 13:38; alt. (m)=996   2021-04-23 M. Gabadirwe
Motopi Pan [MP-20] 1.85 g 21°14'15"S 23°16'52"E Peter Jenniskens, ORI 2018-12-10 UTC time= 13:53; alt. (m)=994   2021-04-23 M. Gabadirwe
Motopi Pan [MP-21] 7.6 g 21°14'15"S 23°16'49"E Mohutsiwa Gabadirwe, BGI 2018-12-10 UTC time= 14:04; alt. (m)=992   2021-04-23 M. Gabadirwe
Motopi Pan [MP-22] 4.73 g 21°14'10"S 23°16'13"E Peter Jenniskens, ORI 2018-12-10 UTC time= 15:07; alt. (m)=997   2021-04-23 M. Gabadirwe
Motopi Pan [MP-23] 8.9 g 21°14'11"S 23°15'47"E Mohutsiwa Gabadirwe, BGI 2018-12-10 UTC time= 15:37; alt. (m)=991   2021-04-23 M. Gabadirwe
Motopi Pan [MP-24] 92.3 g 21°13'39"S 23°9'32"E Thato Makgane,  BFP 2020-07-11 UTC time=  11:50; alt. (m)= 1002   2021-04-23 M. Gabadirwe